createdAt,value
2019-04-29T00:00:55.059Z,28.9
2019-04-29T00:01:57.200Z,28.9
2019-04-29T00:02:59.636Z,29
2019-04-29T00:04:01.800Z,29.2
2019-04-29T00:05:03.957Z,29.3
2019-04-29T00:06:06.373Z,29.2
2019-04-29T00:07:08.810Z,29.1
2019-04-29T00:08:10.947Z,29.1
2019-04-29T00:09:13.380Z,29.2
2019-04-29T00:10:15.806Z,29.2
2019-04-29T00:11:17.949Z,29.2
2019-04-29T00:12:20.373Z,29.2
2019-04-29T00:13:22.865Z,29.2
2019-04-29T00:14:25.299Z,29.3
2019-04-29T00:15:27.447Z,29.2
2019-04-29T00:16:29.872Z,29.1
2019-04-29T00:17:31.744Z,29.1
2019-04-29T00:18:33.887Z,29.1
2019-04-29T00:19:36.360Z,29
2019-04-29T00:20:38.262Z,29.1
2019-04-29T00:21:40.143Z,29.2
2019-04-29T00:22:42.574Z,29.2
2019-04-29T00:23:44.442Z,29.1
2019-04-29T00:24:46.592Z,29.3
2019-04-29T00:25:48.463Z,29.3
2019-04-29T00:26:50.608Z,29.3
2019-04-29T00:27:53.041Z,29.2
2019-04-29T00:28:55.227Z,29.3
2019-04-29T00:29:57.342Z,29.1
2019-04-29T00:30:59.221Z,29.2
2019-04-29T00:32:01.652Z,29.3
2019-04-29T00:33:04.079Z,29.2
2019-04-29T00:34:05.940Z,28.9
2019-04-29T00:35:08.372Z,29.4
2019-04-29T00:36:10.251Z,29
2019-04-29T00:37:12.412Z,29.1
2019-04-29T00:38:14.839Z,29.1
2019-04-29T00:39:16.975Z,29.1
2019-04-29T00:40:19.102Z,29.4
2019-04-29T00:41:21.001Z,29.1
2019-04-29T00:42:23.176Z,29.4
2019-04-29T00:43:25.340Z,29.1
2019-04-29T00:44:27.752Z,29.2
2019-04-29T00:45:30.174Z,29.1
2019-04-29T00:46:32.586Z,29.4
2019-04-29T00:47:35.008Z,29.1
2019-04-29T00:48:37.161Z,29.2
2019-04-29T00:49:39.322Z,29.2
2019-04-29T00:50:41.763Z,29
2019-04-29T00:51:44.192Z,29.2
2019-04-29T00:52:46.618Z,29.4
2019-04-29T00:53:49.045Z,29.1
2019-04-29T00:54:51.464Z,29.3
2019-04-29T00:55:53.892Z,29.3
2019-04-29T00:56:56.310Z,29.2
2019-04-29T00:57:58.469Z,29.2
2019-04-29T00:59:00.892Z,29.3
2019-04-29T01:00:02.754Z,29.3
2019-04-29T01:01:05.177Z,29.2
2019-04-29T01:02:07.043Z,29.2
2019-04-29T01:03:09.204Z,29.3
2019-04-29T01:04:11.631Z,29.1
2019-04-29T01:05:14.069Z,29.1
2019-04-29T01:06:16.501Z,29.3
2019-04-29T01:07:18.303Z,29.2
2019-04-29T01:08:20.701Z,29.3
2019-04-29T01:09:22.558Z,29.3
2019-04-29T01:10:24.712Z,29.1
2019-04-29T01:11:26.582Z,29.2
2019-04-29T01:12:29.012Z,29.2
2019-04-29T01:13:30.896Z,29.5
2019-04-29T01:14:33.321Z,29.2
2019-04-29T01:15:35.756Z,29.4
2019-04-29T01:16:38.171Z,29.2
2019-04-29T01:17:40.602Z,29.1
2019-04-29T01:18:43.041Z,29.3
2019-04-29T01:19:45.462Z,29.4
2019-04-29T01:20:47.872Z,29.2
2019-04-29T01:21:49.987Z,29.1
2019-04-29T01:22:52.143Z,29.2
2019-04-29T01:23:54.562Z,29.1
2019-04-29T01:24:57.000Z,29.5
2019-04-29T01:25:59.453Z,29
2019-04-29T01:27:01.880Z,29.3
2019-04-29T01:28:04.291Z,29.4
2019-04-29T01:29:06.434Z,29.1
2019-04-29T01:30:08.649Z,29.4
2019-04-29T01:31:11.056Z,29.1
2019-04-29T01:32:13.472Z,29.1
2019-04-29T01:33:15.902Z,29
2019-04-29T01:34:18.331Z,29.2
2019-04-29T01:35:20.760Z,29.3
2019-04-29T01:36:22.913Z,29.1
2019-04-29T01:37:25.338Z,29.3
2019-04-29T01:38:27.772Z,29.3
2019-04-29T01:39:30.192Z,29.2
2019-04-29T01:40:32.631Z,29.3
2019-04-29T01:41:34.509Z,29
2019-04-29T01:42:36.927Z,29.3
2019-04-29T01:43:38.779Z,29.5
2019-04-29T01:44:41.194Z,29.4
2019-04-29T01:45:43.335Z,29
2019-04-29T01:46:45.491Z,29.3
2019-04-29T01:47:48.092Z,29.4
2019-04-29T01:48:50.228Z,29.1
2019-04-29T01:49:52.112Z,29.4
2019-04-29T01:50:53.956Z,29.1
2019-04-29T01:51:56.120Z,29.3
2019-04-29T01:52:58.271Z,29.4
2019-04-29T01:54:00.683Z,29.2
2019-04-29T01:55:03.152Z,29.4
2019-04-29T01:56:05.299Z,29.5
2019-04-29T01:57:07.484Z,29.5
2019-04-29T01:58:09.606Z,29.1
2019-04-29T01:59:11.502Z,29.3
2019-04-29T02:00:13.683Z,29.4
2019-04-29T02:01:15.821Z,29.3
2019-04-29T02:02:17.684Z,29.3
2019-04-29T02:03:19.568Z,29.4
2019-04-29T02:04:22.001Z,28.9
2019-04-29T02:05:24.434Z,29.1
2019-04-29T02:06:26.862Z,29.4
2019-04-29T02:07:29.012Z,29.1
2019-04-29T02:08:31.450Z,29
2019-04-29T02:09:33.892Z,29.2
2019-04-29T02:10:36.346Z,29.2
2019-04-29T02:11:38.777Z,29.6
2019-04-29T02:12:40.622Z,29.1
2019-04-29T02:13:42.747Z,29.4
2019-04-29T02:14:45.163Z,29.1
2019-04-29T02:15:47.316Z,29.4
2019-04-29T02:16:49.739Z,29.3
2019-04-29T02:17:51.342Z,29.5
2019-04-29T02:18:53.491Z,29.3
2019-04-29T02:19:55.913Z,29.3
2019-04-29T02:20:58.336Z,29.4
2019-04-29T02:22:00.762Z,29.3
2019-04-29T02:23:03.176Z,29.3
2019-04-29T02:24:05.040Z,29.3
2019-04-29T02:25:07.471Z,29.5
2019-04-29T02:26:09.343Z,29.3
2019-04-29T02:27:11.777Z,29.1
2019-04-29T02:28:13.423Z,29.4
2019-04-29T02:29:15.583Z,29.3
2019-04-29T02:30:17.176Z,29.1
2019-04-29T02:31:19.031Z,29.2
2019-04-29T02:32:21.187Z,29.2
2019-04-29T02:33:23.342Z,28.9
2019-04-29T02:34:25.494Z,29.4
2019-04-29T02:35:27.932Z,29.2
2019-04-29T02:36:30.223Z,29.1
2019-04-29T02:37:32.240Z,29.5
2019-04-29T02:38:34.652Z,29.2
2019-04-29T02:39:37.083Z,29.1
2019-04-29T02:40:39.247Z,29.3
2019-04-29T02:41:41.383Z,29.3
2019-04-29T02:42:43.622Z,28.9
2019-04-29T02:43:45.777Z,29.3
2019-04-29T02:44:47.911Z,29.4
2019-04-29T02:45:49.801Z,29.1
2019-04-29T02:46:52.233Z,29.2
2019-04-29T02:47:54.656Z,29.1
2019-04-29T02:48:57.083Z,29.2
2019-04-29T02:49:59.553Z,29.4
2019-04-29T02:51:01.971Z,29.5
2019-04-29T02:52:03.849Z,29.4
2019-04-29T02:53:06.274Z,29.5
2019-04-29T02:54:08.502Z,29.1
2019-04-29T02:55:10.931Z,29.2
2019-04-29T02:56:12.610Z,29.5
2019-04-29T02:57:14.769Z,29.1
2019-04-29T02:58:17.187Z,29.1
2019-04-29T02:59:19.628Z,29.4
2019-04-29T03:00:22.045Z,29.3
2019-04-29T03:01:24.467Z,29.3
2019-04-29T03:02:26.588Z,29.4
2019-04-29T03:03:29.002Z,29.3
2019-04-29T03:04:31.429Z,28.9
2019-04-29T03:05:33.954Z,29.1
2019-04-29T03:06:40.672Z,28.9
2019-04-29T03:07:43.087Z,29.2
2019-04-29T03:08:45.237Z,29.2
2019-04-29T03:09:47.654Z,29
2019-04-29T03:10:49.536Z,29
2019-04-29T03:11:51.683Z,29.1
2019-04-29T03:12:53.562Z,29.1
2019-04-29T03:13:55.432Z,29
2019-04-29T03:14:57.864Z,28.9
2019-04-29T03:16:00.297Z,28.8
2019-04-29T03:17:02.712Z,29
2019-04-29T03:18:05.143Z,29.2
2019-04-29T03:19:07.574Z,28.9
2019-04-29T03:20:09.996Z,29.1
2019-04-29T03:21:12.117Z,28.9
2019-04-29T03:22:14.572Z,29
2019-04-29T03:23:17.003Z,28.9
2019-04-29T03:24:19.156Z,28.8
2019-04-29T03:25:20.749Z,28.9
2019-04-29T03:26:22.348Z,28.9
2019-04-29T03:27:24.492Z,28.7
2019-04-29T03:28:26.929Z,28.8
2019-04-29T03:29:29.081Z,29
2019-04-29T03:30:31.613Z,28.6
2019-04-29T03:31:38.981Z,29
2019-04-29T03:32:39.070Z,29
2019-04-29T03:33:41.343Z,28.7
2019-04-29T03:34:43.377Z,28.6
2019-04-29T03:35:45.521Z,28.8
2019-04-29T03:36:47.663Z,28.7
2019-04-29T03:37:49.814Z,28.9
2019-04-29T03:38:52.239Z,29.1
2019-04-29T03:39:54.362Z,29.4
2019-04-29T03:40:56.782Z,28.8
2019-04-29T03:41:58.903Z,28.6
2019-04-29T03:43:01.323Z,28.8
2019-04-29T03:44:03.749Z,29
2019-04-29T03:45:05.904Z,28.8
2019-04-29T03:46:08.053Z,29.1
2019-04-29T03:47:10.203Z,29
2019-04-29T03:48:12.614Z,28.8
2019-04-29T03:49:14.476Z,28.9
2019-04-29T03:50:16.902Z,28.8
2019-04-29T03:51:19.323Z,28.6
2019-04-29T03:52:21.740Z,28.7
2019-04-29T03:53:27.803Z,28.6
2019-04-29T03:54:28.865Z,28.9
2019-04-29T03:55:39.330Z,28.5
2019-04-29T03:56:35.765Z,28.5
2019-04-29T03:57:38.187Z,28.3
2019-04-29T03:58:40.704Z,28.5
2019-04-29T03:59:43.196Z,28.4
2019-04-29T04:00:45.187Z,29.2
2019-04-29T04:01:47.642Z,29.4
2019-04-29T04:02:49.800Z,28.9
2019-04-29T04:03:52.224Z,28.7
2019-04-29T04:04:54.404Z,28.4
2019-04-29T04:05:56.277Z,28.1
2019-04-29T04:06:58.422Z,28.8
2019-04-29T04:08:04.842Z,27.6
2019-04-29T04:09:07.036Z,29
2019-04-29T04:10:09.161Z,27.8
2019-04-29T04:11:11.443Z,28.9
2019-04-29T04:12:13.594Z,28.2
2019-04-29T04:13:15.767Z,29.4
2019-04-29T04:14:17.982Z,29
2019-04-29T04:15:20.425Z,29.2
2019-04-29T04:16:22.868Z,27.4
2019-04-29T04:17:25.093Z,27.2
2019-04-29T04:18:27.237Z,27.8
2019-04-29T04:19:29.662Z,28.7
2019-04-29T04:20:32.113Z,27.4
2019-04-29T04:21:34.518Z,29.4
2019-04-29T04:22:36.656Z,30
2019-04-29T04:23:38.803Z,28.8
2019-04-29T04:24:40.925Z,29.6
2019-04-29T04:25:43.361Z,28
2019-04-29T04:26:45.512Z,27.5
2019-04-29T04:27:47.960Z,28.4
2019-04-29T04:28:50.576Z,28.8
2019-04-29T04:29:52.983Z,27.8
2019-04-29T04:30:55.137Z,29.2
2019-04-29T04:31:57.469Z,29.4
2019-04-29T04:32:59.591Z,29.3
2019-04-29T04:34:01.824Z,28.6
2019-04-29T04:35:03.979Z,27.5
2019-04-29T04:36:06.124Z,29.8
2019-04-29T04:37:08.542Z,27.9
2019-04-29T04:38:10.701Z,27.4
2019-04-29T04:39:12.853Z,28.6
2019-04-29T04:40:15.271Z,29.6
2019-04-29T04:41:17.709Z,29.6
2019-04-29T04:42:20.214Z,27.5
2019-04-29T04:43:22.633Z,27.4
2019-04-29T04:44:24.780Z,29
2019-04-29T04:45:27.185Z,27.6
2019-04-29T04:46:29.609Z,29
2019-04-29T04:47:31.767Z,28.3
2019-04-29T04:48:34.187Z,28.7
2019-04-29T04:49:36.608Z,29.5
2019-04-29T04:50:39.026Z,28.7
2019-04-29T04:51:41.447Z,30
2019-04-29T04:52:43.603Z,29.1
2019-04-29T04:53:46.026Z,28.9
2019-04-29T04:54:48.442Z,28.8
2019-04-29T04:55:50.859Z,28.8
2019-04-29T04:56:53.293Z,29.1
2019-04-29T04:57:55.714Z,28.7
2019-04-29T04:58:58.132Z,29.1
2019-04-29T05:00:00.593Z,29.2
2019-04-29T05:01:02.880Z,27.7
2019-04-29T05:02:05.352Z,28.9
2019-04-29T05:03:07.840Z,28.9
2019-04-29T05:04:10.422Z,30
2019-04-29T05:05:12.834Z,28.7
2019-04-29T05:06:14.711Z,28.4
2019-04-29T05:07:16.898Z,28
2019-04-29T05:08:19.069Z,27.5
2019-04-29T05:09:20.950Z,28.5
2019-04-29T05:10:22.848Z,29
2019-04-29T05:11:25.052Z,28.9
2019-04-29T05:12:27.221Z,28.8
2019-04-29T05:13:29.676Z,27.9
2019-04-29T05:14:31.841Z,29
2019-04-29T05:15:33.996Z,29.1
2019-04-29T05:16:35.917Z,28.5
2019-04-29T05:17:37.791Z,29.2
2019-04-29T05:18:40.242Z,29.1
2019-04-29T05:19:42.147Z,28.1
2019-04-29T05:20:44.322Z,28
2019-04-29T05:21:46.761Z,28.6
2019-04-29T05:22:49.209Z,28.6
2019-04-29T05:23:51.636Z,28.9
2019-04-29T05:24:53.793Z,28.2
2019-04-29T05:25:56.222Z,28.6
2019-04-29T05:26:58.657Z,28.6
2019-04-29T05:28:01.081Z,28.7
2019-04-29T05:29:03.549Z,28
2019-04-29T05:30:05.712Z,28.4
2019-04-29T05:31:08.132Z,28.1
2019-04-29T05:32:10.643Z,28.6
2019-04-29T05:33:12.800Z,28.6
2019-04-29T05:34:15.215Z,28.6
2019-04-29T05:35:20.708Z,28.5
2019-04-29T05:36:22.628Z,28.3
2019-04-29T05:37:24.775Z,28.3
2019-04-29T05:38:26.941Z,28.7
2019-04-29T05:39:29.359Z,28.3
2019-04-29T05:40:31.501Z,28.5
2019-04-29T05:41:34.686Z,28.3
2019-04-29T05:42:38.345Z,28.5
2019-04-29T05:43:40.777Z,28.2
2019-04-29T05:44:43.201Z,28.2
2019-04-29T05:45:46.085Z,28.7
2019-04-29T05:46:49.542Z,28.6
2019-04-29T05:47:52.221Z,28.4
2019-04-29T05:48:58.010Z,28.3
2019-04-29T05:50:06.348Z,28.3
2019-04-29T05:51:08.666Z,28.2
2019-04-29T05:52:11.079Z,28.1
2019-04-29T05:53:16.076Z,28.8
2019-04-29T05:54:18.179Z,27.9
2019-04-29T05:55:20.455Z,28.3
2019-04-29T05:56:22.633Z,27.9
2019-04-29T05:57:25.604Z,28.3
2019-04-29T05:58:28.481Z,28.1
2019-04-29T05:59:33.951Z,28.3
2019-04-29T06:00:36.393Z,28.2
2019-04-29T06:01:38.548Z,28.4
2019-04-29T06:02:43.735Z,28.4
2019-04-29T06:03:46.160Z,28.4
2019-04-29T06:04:52.282Z,28.9
2019-04-29T06:05:53.311Z,28.2
2019-04-29T06:06:55.163Z,28.5
2019-04-29T06:08:00.936Z,28.4
2019-04-29T06:09:02.079Z,28.6
2019-04-29T06:10:04.509Z,28.7
2019-04-29T06:11:06.931Z,28.2
2019-04-29T06:12:09.131Z,28.3
2019-04-29T06:13:11.571Z,28.3
2019-04-29T06:14:14.005Z,28.4
2019-04-29T06:15:16.418Z,28.6
2019-04-29T06:16:20.826Z,28.8
2019-04-29T06:17:23.820Z,28.3
2019-04-29T06:18:26.251Z,28.5
2019-04-29T06:19:28.676Z,28.2
2019-04-29T06:20:30.542Z,27.8
2019-04-29T06:21:33.020Z,28.2
2019-04-29T06:22:37.799Z,28.3
2019-04-29T06:23:40.455Z,28.7
2019-04-29T06:24:42.942Z,28.1
2019-04-29T06:25:45.368Z,28.2
2019-04-29T06:26:47.793Z,28.1
2019-04-29T06:27:50.219Z,28.7
2019-04-29T06:28:52.665Z,28.5
2019-04-29T06:29:58.418Z,28.5
2019-04-29T06:31:00.054Z,28.4
2019-04-29T06:32:02.202Z,28.4
2019-04-29T06:33:04.351Z,28.4
2019-04-29T06:34:06.631Z,28.4
2019-04-29T06:35:10.515Z,28.4
2019-04-29T06:36:16.241Z,28.4
2019-04-29T06:37:18.694Z,28.4
2019-04-29T06:38:21.144Z,28.2
2019-04-29T06:39:23.607Z,28.4
2019-04-29T06:40:26.045Z,27.9
2019-04-29T06:41:31.516Z,28.4
2019-04-29T06:42:33.940Z,27.9
2019-04-29T06:43:36.370Z,28.8
2019-04-29T06:44:38.790Z,28.8
2019-04-29T06:45:40.981Z,28.3
2019-04-29T06:46:43.169Z,28.9
2019-04-29T06:47:45.586Z,27.9
2019-04-29T06:48:48.003Z,28
2019-04-29T06:49:50.435Z,29.1
2019-04-29T06:50:52.576Z,28.5
2019-04-29T06:51:54.991Z,28.3
2019-04-29T06:52:57.159Z,28.7
2019-04-29T06:53:59.311Z,28.2
2019-04-29T06:55:01.462Z,27.4
2019-04-29T06:56:03.310Z,29.3
2019-04-29T06:57:05.446Z,27.9
2019-04-29T06:58:07.868Z,28.4
2019-04-29T06:59:11.968Z,28.3
2019-04-29T07:00:17.476Z,28.1
2019-04-29T07:01:19.938Z,28.5
2019-04-29T07:02:22.055Z,28.8
2019-04-29T07:03:25.402Z,28.7
2019-04-29T07:04:30.568Z,28
2019-04-29T07:05:36.235Z,28.9
2019-04-29T07:06:38.393Z,28.5
2019-04-29T07:07:40.243Z,28.7
2019-04-29T07:08:42.396Z,28.7
2019-04-29T07:09:44.818Z,28.7
2019-04-29T07:10:47.251Z,28.6
2019-04-29T07:11:49.193Z,29.1
2019-04-29T07:12:51.613Z,27.7
2019-04-29T07:13:57.493Z,28.1
2019-04-29T07:14:58.739Z,28.3
2019-04-29T07:16:00.903Z,28.7
2019-04-29T07:17:05.511Z,28.2
2019-04-29T07:18:08.324Z,28.6
2019-04-29T07:19:10.742Z,27.9
2019-04-29T07:20:13.121Z,27.4
2019-04-29T07:21:15.244Z,28.4
2019-04-29T07:22:20.731Z,29
2019-04-29T07:23:22.654Z,28.1
2019-04-29T07:24:25.067Z,27.8
2019-04-29T07:25:28.654Z,27.9
2019-04-29T07:26:31.739Z,28.1
2019-04-29T07:27:39.079Z,27.4
2019-04-29T07:28:39.307Z,28.3
2019-04-29T07:29:41.812Z,29
2019-04-29T07:31:00.211Z,28.4
2019-04-29T07:31:49.226Z,29
2019-04-29T07:32:51.643Z,28.3
2019-04-29T07:33:57.859Z,29
2019-04-29T07:34:59.053Z,28.6
2019-04-29T07:36:10.594Z,28.2
2019-04-29T07:37:05.643Z,28.2
2019-04-29T07:38:08.512Z,28.2
2019-04-29T07:39:11.629Z,28.5
2019-04-29T07:40:14.044Z,28.1
2019-04-29T07:41:18.882Z,28.4
2019-04-29T07:42:24.534Z,28.6
2019-04-29T07:43:26.166Z,27.8
2019-04-29T07:44:37.098Z,27.9
2019-04-29T07:45:43.850Z,28.1
2019-04-29T07:46:55.442Z,28.4
2019-04-29T07:47:55.728Z,28.7
2019-04-29T07:49:00.669Z,28.2
2019-04-29T07:49:53.528Z,28.3
2019-04-29T07:50:59.364Z,28.3
2019-04-29T07:52:01.292Z,28.4
2019-04-29T07:53:03.437Z,28.6
2019-04-29T07:54:05.603Z,28.3
2019-04-29T07:55:12.024Z,28.3
2019-04-29T07:56:14.443Z,28.3
2019-04-29T07:57:18.049Z,28.3
2019-04-29T07:58:22.938Z,28.2
2019-04-29T07:59:25.497Z,28.2
2019-04-29T08:00:27.646Z,28.4
2019-04-29T08:01:29.793Z,28.6
2019-04-29T08:02:31.664Z,28.3
2019-04-29T08:03:33.791Z,28.5
2019-04-29T08:04:35.930Z,28.5
2019-04-29T08:05:42.355Z,28.2
2019-04-29T08:06:44.923Z,28.1
2019-04-29T08:07:46.825Z,28.6
2019-04-29T08:08:54.905Z,28.2
2019-04-29T08:09:53.962Z,28.5
2019-04-29T08:10:56.757Z,28.3
2019-04-29T08:11:58.983Z,28.6
2019-04-29T08:13:00.577Z,28.1
2019-04-29T08:14:02.997Z,28.2
2019-04-29T08:15:07.668Z,28.3
2019-04-29T08:16:12.564Z,28.2
2019-04-29T08:17:15.415Z,28.2
2019-04-29T08:18:18.192Z,28.2
2019-04-29T08:19:20.683Z,28.6
2019-04-29T08:20:26.147Z,28.3
2019-04-29T08:21:28.567Z,28.5
2019-04-29T08:22:30.995Z,28.3
2019-04-29T08:23:40.882Z,28
2019-04-29T08:24:38.402Z,28.3
2019-04-29T08:25:40.824Z,28.3
2019-04-29T08:26:47.246Z,28.2
2019-04-29T08:27:48.237Z,28.3
2019-04-29T08:28:52.423Z,28.3
2019-04-29T08:29:58.399Z,28.2
2019-04-29T08:31:00.825Z,28.2
2019-04-29T08:32:02.994Z,27.9
2019-04-29T08:33:07.465Z,28.1
2019-04-29T08:34:12.814Z,28.4
2019-04-29T08:35:14.971Z,28
2019-04-29T08:36:17.400Z,28.3
2019-04-29T08:37:19.824Z,28.6
2019-04-29T08:38:26.730Z,28
2019-04-29T08:39:29.262Z,28.3
2019-04-29T08:40:34.287Z,28.4
2019-04-29T08:41:36.558Z,28.5
2019-04-29T08:42:41.360Z,28.3
2019-04-29T08:43:43.987Z,28.4
2019-04-29T08:44:46.413Z,28
2019-04-29T08:45:48.572Z,28
2019-04-29T08:46:51.835Z,28.1
2019-04-29T08:47:55.183Z,28.3
2019-04-29T08:49:00.961Z,28.1
2019-04-29T08:50:02.598Z,28.2
2019-04-29T08:51:05.019Z,28.3
2019-04-29T08:52:07.180Z,28.3
2019-04-29T08:53:09.593Z,28.2
2019-04-29T08:54:12.055Z,28.5
2019-04-29T08:55:19.362Z,28.2
2019-04-29T08:56:22.128Z,28
2019-04-29T08:57:24.031Z,28.4
2019-04-29T08:58:26.495Z,28.3
2019-04-29T08:59:28.943Z,28.4
2019-04-29T09:00:31.163Z,28
2019-04-29T09:01:35.504Z,28.1
2019-04-29T09:02:41.233Z,28.2
2019-04-29T09:03:42.853Z,28.1
2019-04-29T09:04:53.173Z,28.1
2019-04-29T09:06:03.918Z,28.3
2019-04-29T09:06:55.241Z,28.3
2019-04-29T09:07:58.944Z,28.3
2019-04-29T09:09:04.836Z,28.2
2019-04-29T09:10:06.420Z,28.5
2019-04-29T09:11:12.746Z,28.1
2019-04-29T09:12:13.823Z,28
2019-04-29T09:13:20.475Z,28.2
2019-04-29T09:14:22.631Z,28.1
2019-04-29T09:15:24.510Z,28.5
2019-04-29T09:16:26.666Z,28.1
2019-04-29T09:17:29.092Z,27.9
2019-04-29T09:18:31.529Z,28.2
2019-04-29T09:19:33.672Z,28.1
2019-04-29T09:20:36.101Z,28.3
2019-04-29T09:21:38.254Z,28.1
2019-04-29T09:22:40.692Z,28.7
2019-04-29T09:23:43.145Z,28.6
2019-04-29T09:24:48.095Z,28.1
2019-04-29T09:26:01.868Z,28.3
2019-04-29T09:26:55.281Z,28.5
2019-04-29T09:27:57.708Z,27.9
2019-04-29T09:29:03.782Z,28
2019-04-29T09:30:04.867Z,28.1
2019-04-29T09:31:07.294Z,28.3
2019-04-29T09:32:09.721Z,27.9
2019-04-29T09:33:13.028Z,28.5
2019-04-29T09:34:19.749Z,28.2
2019-04-29T09:35:21.339Z,28.2
2019-04-29T09:36:23.503Z,28.2
2019-04-29T09:37:30.168Z,28.6
2019-04-29T09:38:36.749Z,28.4
2019-04-29T09:39:43.208Z,28.3
2019-04-29T09:40:45.506Z,28.5
2019-04-29T09:41:47.582Z,28.5
2019-04-29T09:42:50.132Z,28.1
2019-04-29T09:43:53.624Z,28.1
2019-04-29T09:45:00.035Z,28.3
2019-04-29T09:46:02.203Z,28.3
2019-04-29T09:47:08.045Z,28.3
2019-04-29T09:48:09.089Z,28.1
2019-04-29T09:49:11.253Z,28.1
2019-04-29T09:50:13.681Z,28.4
2019-04-29T09:51:17.465Z,28.4
2019-04-29T09:52:23.482Z,28.2
2019-04-29T09:53:25.921Z,28.3
2019-04-29T09:54:27.786Z,28
2019-04-29T09:55:29.923Z,28.2
2019-04-29T09:56:36.835Z,27.9
2019-04-29T09:57:39.024Z,28.4
2019-04-29T09:58:41.430Z,28.4
2019-04-29T09:59:43.873Z,28.4
2019-04-29T10:00:46.302Z,28.3
2019-04-29T10:01:50.380Z,28.4
2019-04-29T10:02:56.111Z,28.2
2019-04-29T10:03:58.275Z,28.1
2019-04-29T10:05:00.153Z,28.1
2019-04-29T10:06:02.308Z,28.1
2019-04-29T10:07:04.744Z,28.4
2019-04-29T10:08:07.174Z,28.3
2019-04-29T10:09:09.369Z,28
2019-04-29T10:10:11.252Z,28.3
2019-04-29T10:11:13.388Z,28.3
2019-04-29T10:12:15.244Z,28
2019-04-29T10:13:17.674Z,28.2
2019-04-29T10:14:19.543Z,28.3
2019-04-29T10:15:21.456Z,28.1
2019-04-29T10:16:23.880Z,28.3
2019-04-29T10:17:26.048Z,28.1
2019-04-29T10:18:29.672Z,28.2
2019-04-29T10:19:33.426Z,28.4
2019-04-29T10:20:35.574Z,28
2019-04-29T10:21:37.994Z,28.2
2019-04-29T10:22:40.161Z,28.1
2019-04-29T10:23:42.340Z,28.3
2019-04-29T10:24:44.770Z,28.1
2019-04-29T10:25:46.924Z,27.9
2019-04-29T10:26:49.352Z,27.8
2019-04-29T10:27:51.771Z,27.7
2019-04-29T10:28:54.194Z,28.4
2019-04-29T10:29:57.104Z,28.2
2019-04-29T10:30:59.369Z,28.2
2019-04-29T10:32:02.335Z,28.5
2019-04-29T10:33:08.033Z,28.2
2019-04-29T10:34:13.703Z,28.4
2019-04-29T10:35:15.582Z,27.9
2019-04-29T10:36:20.478Z,28.2
2019-04-29T10:37:23.165Z,28.3
2019-04-29T10:38:30.368Z,28.3
2019-04-29T10:39:32.776Z,28.1
2019-04-29T10:40:34.931Z,28.3
2019-04-29T10:41:40.200Z,28.4
2019-04-29T10:42:42.044Z,28.3
2019-04-29T10:43:44.524Z,28.3
2019-04-29T10:44:50.466Z,28.2
2019-04-29T10:45:52.882Z,28.2
2019-04-29T10:46:55.312Z,28.4
2019-04-29T10:47:57.172Z,28.2
2019-04-29T10:49:03.547Z,28.4
2019-04-29T10:50:04.614Z,28.3
2019-04-29T10:51:11.236Z,28.3
2019-04-29T10:53:56.580Z,28.6
2019-04-29T10:54:59.014Z,28.2
2019-04-29T10:56:05.616Z,28
2019-04-29T10:57:06.453Z,28.3
2019-04-29T10:58:11.920Z,28.3
2019-04-29T10:59:14.325Z,28.6
2019-04-29T11:00:16.886Z,28.4
2019-04-29T11:01:22.308Z,28.3
2019-04-29T11:02:24.466Z,28.1
2019-04-29T11:03:26.600Z,28.1
2019-04-29T11:04:31.574Z,28
2019-04-29T11:05:33.720Z,28.3
2019-04-29T11:06:36.915Z,28.5
2019-04-29T11:07:39.374Z,27.9
2019-04-29T11:08:43.039Z,28.1
2019-04-29T11:09:46.217Z,27.9
2019-04-29T11:10:51.905Z,28.2
2019-04-29T11:11:57.374Z,28.3
2019-04-29T11:12:59.802Z,28.2
2019-04-29T11:14:03.131Z,28.2
2019-04-29T11:15:05.644Z,28.2
2019-04-29T11:16:11.105Z,28.1
2019-04-29T11:17:16.281Z,28.4
2019-04-29T11:18:23.131Z,28.2
2019-04-29T11:19:23.490Z,28.3
2019-04-29T11:20:25.346Z,28.4
2019-04-29T11:21:29.322Z,28.4
2019-04-29T11:22:33.839Z,28.6
2019-04-29T11:23:39.542Z,28.1
2019-04-29T11:24:41.966Z,28.5
2019-04-29T11:25:50.774Z,28.1
2019-04-29T11:26:49.378Z,28.1
2019-04-29T11:27:51.805Z,28.3
2019-04-29T11:28:57.745Z,28.1
2019-04-29T11:30:02.819Z,28.3
2019-04-29T11:31:05.149Z,28
2019-04-29T11:32:10.829Z,28.2
2019-04-29T11:33:12.983Z,28.3
2019-04-29T11:34:17.639Z,28.3
2019-04-29T11:35:20.405Z,28.3
2019-04-29T11:36:25.884Z,28.1
2019-04-29T11:37:28.286Z,28.5
2019-04-29T11:38:32.891Z,28.1
2019-04-29T11:39:35.429Z,28.3
2019-04-29T11:40:43.377Z,28.3
2019-04-29T11:41:42.836Z,28.1
2019-04-29T11:42:44.964Z,28.5
2019-04-29T11:43:50.943Z,27.9
2019-04-29T11:44:52.367Z,28.3
2019-04-29T11:45:58.534Z,28.2
2019-04-29T11:47:00.943Z,28.6
2019-04-29T11:48:03.359Z,28.4
2019-04-29T11:49:05.777Z,28.1
2019-04-29T11:50:11.825Z,28.3
2019-04-29T11:51:13.200Z,28.3
2019-04-29T11:52:15.627Z,28
2019-04-29T11:53:17.790Z,28.2
2019-04-29T11:54:20.253Z,28.4
2019-04-29T11:55:22.697Z,28
2019-04-29T11:56:25.137Z,28.2
2019-04-29T11:57:40.266Z,28.5
2019-04-29T11:58:32.552Z,28.3
2019-04-29T11:59:34.732Z,28
2019-04-29T12:00:37.177Z,28
2019-04-29T12:01:42.728Z,28
2019-04-29T12:02:45.969Z,28.2
2019-04-29T12:03:51.278Z,28.3
2019-04-29T12:04:53.246Z,28.4
2019-04-29T12:05:55.449Z,28.2
2019-04-29T12:06:58.140Z,28.2
2019-04-29T12:08:03.088Z,28.4
2019-04-29T12:09:06.734Z,28.3
2019-04-29T12:10:09.316Z,28.3
2019-04-29T12:11:11.757Z,28.1
2019-04-29T12:12:14.529Z,28.3
2019-04-29T12:13:18.870Z,28.2
2019-04-29T12:14:24.534Z,28
2019-04-29T12:15:26.399Z,28
2019-04-29T12:16:28.566Z,28.1
2019-04-29T12:17:31.002Z,27.8
2019-04-29T12:18:33.909Z,28.1
2019-04-29T12:19:39.600Z,28.2
2019-04-29T12:20:41.786Z,28.3
2019-04-29T12:21:43.666Z,28.2
2019-04-29T12:22:48.330Z,28.3
2019-04-29T12:23:51.973Z,28.3
2019-04-29T12:24:54.985Z,28.2
2019-04-29T12:25:58.561Z,28.1
2019-04-29T12:27:04.003Z,28.2
2019-04-29T12:28:18.726Z,28.2
2019-04-29T12:29:13.577Z,28
2019-04-29T12:30:16.629Z,28.3
2019-04-29T12:31:18.896Z,28.3
2019-04-29T12:32:24.876Z,28.3
2019-04-29T12:33:26.031Z,28.3
2019-04-29T12:34:28.471Z,28
2019-04-29T12:35:30.615Z,28.1
2019-04-29T12:36:35.022Z,28
2019-04-29T12:37:38.033Z,28.1
2019-04-29T12:38:40.545Z,28.2
2019-04-29T12:39:46.163Z,28.3
2019-04-29T12:40:49.767Z,28.4
2019-04-29T12:41:56.271Z,28.2
2019-04-29T12:43:02.153Z,28
2019-04-29T12:44:04.802Z,27.9
2019-04-29T12:45:18.862Z,28.1
2019-04-29T12:46:12.022Z,28.2
2019-04-29T12:47:25.740Z,28.3
2019-04-29T12:48:24.623Z,28.2
2019-04-29T12:49:24.434Z,28.2
2019-04-29T12:50:26.577Z,28.1
2019-04-29T12:51:28.717Z,28
2019-04-29T12:52:31.134Z,28.2
2019-04-29T12:53:33.027Z,28
2019-04-29T12:54:34.923Z,28.2
2019-04-29T12:55:44.844Z,28
2019-04-29T12:56:42.975Z,28.2
2019-04-29T12:57:47.346Z,28.1
2019-04-29T12:58:55.015Z,28.1
2019-04-29T12:59:57.784Z,28.1
2019-04-29T13:01:01.851Z,28.1
2019-04-29T13:02:05.321Z,28
2019-04-29T13:03:08.004Z,27.9
2019-04-29T13:04:10.676Z,28.2
2019-04-29T13:05:16.310Z,28.2
2019-04-29T13:06:23.440Z,28
2019-04-29T13:07:23.725Z,28.1
2019-04-29T13:08:26.139Z,28.1
2019-04-29T13:09:28.393Z,28
2019-04-29T13:10:30.530Z,28
2019-04-29T13:11:40.824Z,28
2019-04-29T13:12:39.727Z,28.1
2019-04-29T13:13:45.379Z,28
2019-04-29T13:14:47.541Z,28.2
2019-04-29T13:15:54.454Z,28
2019-04-29T13:16:57.070Z,27.8
2019-04-29T13:18:03.357Z,28
2019-04-29T13:19:11.366Z,27.9
2019-04-29T13:20:11.609Z,28.1
2019-04-29T13:21:14.476Z,28.3
2019-04-29T13:22:17.223Z,28.1
2019-04-29T13:23:33.071Z,27.9
2019-04-29T13:24:24.938Z,27.9
2019-04-29T13:25:28.855Z,28.1
2019-04-29T13:26:33.169Z,28.2
2019-04-29T13:27:38.845Z,28
2019-04-29T13:28:58.845Z,27.9
2019-04-29T13:29:46.466Z,28
2019-04-29T13:30:51.248Z,28.1
2019-04-29T13:31:54.075Z,28.1
2019-04-29T13:32:56.193Z,28.1
2019-04-29T13:34:09.177Z,28.1
2019-04-29T13:35:10.374Z,28.3
2019-04-29T13:36:12.082Z,28.1
2019-04-29T13:37:18.745Z,27.9
2019-04-29T13:38:19.250Z,28.1
2019-04-29T13:39:38.299Z,28
2019-04-29T13:40:26.381Z,27.8
2019-04-29T13:41:28.870Z,28.2
2019-04-29T13:42:31.043Z,28.1
2019-04-29T13:43:35.294Z,28.1
2019-04-29T13:44:42.380Z,28.1
2019-04-29T13:45:42.618Z,28
2019-04-29T13:46:50.622Z,28.1
2019-04-29T13:47:50.976Z,27.9
2019-04-29T13:48:55.534Z,28.2
2019-04-29T13:50:16.439Z,28.3
2019-04-29T13:51:03.537Z,28.3
2019-04-29T13:52:05.422Z,28.1
2019-04-29T13:53:11.525Z,28
2019-04-29T13:54:12.584Z,28
2019-04-29T13:55:17.397Z,28
2019-04-29T13:56:33.107Z,28
2019-04-29T13:57:24.707Z,28.2
2019-04-29T13:58:27.254Z,28
2019-04-29T13:59:31.594Z,28
2019-04-29T14:00:36.352Z,27.9
2019-04-29T14:01:51.726Z,27.9
2019-04-29T14:02:57.939Z,28.1
2019-04-29T14:03:49.515Z,28
2019-04-29T14:04:52.045Z,28.1
2019-04-29T14:06:04.055Z,28.1